createdAt,value
2019-04-26T00:00:37.994Z,101480.16
2019-04-26T00:03:12.093Z,101468.86
2019-04-26T00:05:43.527Z,101470.55
2019-04-26T00:08:15.789Z,101466.59
2019-04-26T00:10:58.175Z,101465.39
2019-04-26T00:13:34.055Z,101470.16
2019-04-26T00:16:10.160Z,101462.80
2019-04-26T00:18:42.732Z,101466.20
2019-04-26T00:21:14.309Z,101463.25
2019-04-26T00:23:45.999Z,101466.52
2019-04-26T00:26:17.765Z,101460.20
2019-04-26T00:28:49.285Z,101451.22
2019-04-26T00:31:21.361Z,101466.12
2019-04-26T00:33:53.008Z,101463.73
2019-04-26T00:36:24.458Z,101462.20
2019-04-26T00:38:55.911Z,101459.77
2019-04-26T00:41:27.947Z,101459.77
2019-04-26T00:43:59.646Z,101459.25
2019-04-26T00:46:32.047Z,101454.80
2019-04-26T00:49:05.350Z,101459.56
2019-04-26T00:51:36.331Z,101454.09
2019-04-26T00:54:08.044Z,101454.80
2019-04-26T00:56:40.043Z,101451.36
2019-04-26T00:59:12.255Z,101446.11
2019-04-26T01:01:45.259Z,101453.61
2019-04-26T01:04:17.063Z,101442.84
2019-04-26T01:06:50.266Z,101446.86
2019-04-26T01:09:22.000Z,101442.89
2019-04-26T01:11:53.366Z,101441.48
2019-04-26T01:14:24.840Z,101444.73
2019-04-26T01:16:56.265Z,101444.40
2019-04-26T01:19:28.823Z,101439.14
2019-04-26T01:22:03.158Z,101440.82
2019-04-26T01:24:37.642Z,101442.45
2019-04-26T01:27:10.506Z,101433.59
2019-04-26T01:29:44.270Z,101444.95
2019-04-26T01:32:17.678Z,101437.13
2019-04-26T01:34:51.258Z,101440.03
2019-04-26T01:37:22.632Z,101437.81
2019-04-26T01:39:58.635Z,101439.45
2019-04-26T01:42:48.109Z,101438.08
2019-04-26T01:45:24.395Z,101443.36
2019-04-26T01:47:58.792Z,101443.48
2019-04-26T01:50:33.210Z,101433.01
2019-04-26T01:53:05.749Z,101441.67
2019-04-26T01:55:37.163Z,101437.05
2019-04-26T01:58:08.650Z,101434.66
2019-04-26T02:00:42.762Z,101430.47
2019-04-26T02:03:15.961Z,101435.22
2019-04-26T02:05:47.333Z,101429.80
2019-04-26T02:08:19.062Z,101428.73
2019-04-26T02:10:50.652Z,101427.86
2019-04-26T02:13:24.835Z,101432.84
2019-04-26T02:15:56.592Z,101434.22
2019-04-26T02:18:28.147Z,101436.81
2019-04-26T02:21:04.143Z,101430.11
2019-04-26T02:23:53.786Z,101431.54
2019-04-26T02:26:38.780Z,101436.05
2019-04-26T02:29:18.409Z,101427.68
2019-04-26T02:31:52.766Z,101432.02
2019-04-26T02:34:26.038Z,101428.69
2019-04-26T02:37:01.328Z,101428.34
2019-04-26T02:39:37.511Z,101430.22
2019-04-26T02:42:15.469Z,101434.03
2019-04-26T02:44:51.428Z,101433.56
2019-04-26T02:47:39.181Z,101433.07
2019-04-26T02:50:15.551Z,101431.30
2019-04-26T02:52:55.579Z,101433.96
2019-04-26T02:55:57.490Z,101433.01
2019-04-26T02:58:33.289Z,101436.70
2019-04-26T03:01:05.036Z,101436.63
2019-04-26T03:03:39.310Z,101439.55
2019-04-26T03:06:11.209Z,101442.05
2019-04-26T03:08:43.054Z,101438.66
2019-04-26T03:11:17.860Z,101450.23
2019-04-26T03:13:56.985Z,101444.44
2019-04-26T03:16:33.369Z,101445.92
2019-04-26T03:19:16.782Z,101448.47
2019-04-26T03:22:00.319Z,101445.31
2019-04-26T03:24:51.190Z,101445.05
2019-04-26T03:27:44.419Z,101440.14
2019-04-26T03:30:22.316Z,101435.97
2019-04-26T03:33:24.235Z,101435.88
2019-04-26T03:36:26.260Z,101428.09
2019-04-26T03:39:17.433Z,101431.98
2019-04-26T03:42:14.588Z,101430.02
2019-04-26T03:44:58.075Z,101431.30
2019-04-26T03:47:35.620Z,101431.38
2019-04-26T03:50:17.732Z,101435.80
2019-04-26T03:52:55.212Z,101440.22
2019-04-26T03:55:31.260Z,101438.98
2019-04-26T03:58:10.046Z,101441.02
2019-04-26T04:00:46.933Z,101444.30
2019-04-26T04:03:37.482Z,101441.36
2019-04-26T04:06:11.932Z,101440.14
2019-04-26T04:08:49.069Z,101444.13
2019-04-26T04:11:26.334Z,101435.62
2019-04-26T04:14:06.378Z,101430.48
2019-04-26T04:16:57.302Z,101435.50
2019-04-26T04:19:55.907Z,101432.80
2019-04-26T04:22:34.477Z,101429.24
2019-04-26T04:25:25.804Z,101427.66
2019-04-26T04:28:06.147Z,101430.90
2019-04-26T04:30:47.714Z,101431.11
2019-04-26T04:33:47.898Z,101427.72
2019-04-26T04:36:26.223Z,101422.53
2019-04-26T04:39:13.359Z,101426.35
2019-04-26T04:41:55.903Z,101421.58
2019-04-26T04:45:08.070Z,101430.66
2019-04-26T04:47:49.625Z,101423.30
2019-04-26T04:50:24.874Z,101427.45
2019-04-26T04:53:02.011Z,101425.71
2019-04-26T04:55:46.289Z,101425.55
2019-04-26T04:58:38.816Z,101417.30
2019-04-26T05:01:17.548Z,101427.40
2019-04-26T05:04:02.700Z,101425.19
2019-04-26T05:06:47.497Z,101424.84
2019-04-26T05:09:24.635Z,101431.55
2019-04-26T05:12:11.114Z,101427.27
2019-04-26T05:15:02.235Z,101432.05
2019-04-26T05:18:01.082Z,101427.59
2019-04-26T05:20:55.452Z,101427.79
2019-04-26T05:23:51.085Z,101431.03
2019-04-26T05:26:38.649Z,101431.35
2019-04-26T05:29:31.334Z,101435.03
2019-04-26T05:32:25.234Z,101430.80
2019-04-26T05:35:14.208Z,101425.73
2019-04-26T05:38:00.188Z,101421.47
2019-04-26T05:40:54.070Z,101427.11
2019-04-26T05:43:32.768Z,101422.64
2019-04-26T05:46:17.894Z,101415.61
2019-04-26T05:49:03.086Z,101415.17
2019-04-26T05:52:13.714Z,101419.30
2019-04-26T05:54:52.281Z,101413.75
2019-04-26T05:57:44.693Z,101415.88
2019-04-26T06:00:52.199Z,101409.56
2019-04-26T06:04:06.657Z,101414.92
2019-04-26T06:06:45.448Z,101420.93
2019-04-26T06:09:42.602Z,101420.06
2019-04-26T06:12:24.109Z,101421.11
2019-04-26T06:15:28.468Z,101424.17
2019-04-26T06:18:23.859Z,101423.02
2019-04-26T06:21:04.112Z,101426.07
2019-04-26T06:23:41.360Z,101415.22
2019-04-26T06:26:46.116Z,101416.59
2019-04-26T06:29:38.798Z,101418.33
2019-04-26T06:32:28.380Z,101417.38
2019-04-26T06:35:20.358Z,101420.80
2019-04-26T06:38:22.009Z,101419.64
2019-04-26T06:41:28.018Z,101415.18
2019-04-26T06:44:04.750Z,101416.98
2019-04-26T06:46:43.680Z,101419.06
2019-04-26T06:49:28.550Z,101416.81
2019-04-26T06:52:20.893Z,101413.27
2019-04-26T06:54:58.394Z,101411.39
2019-04-26T06:58:02.868Z,101411.11
2019-04-26T07:00:47.584Z,101413.59
2019-04-26T07:03:24.783Z,101419.63
2019-04-26T07:06:00.378Z,101405.66
2019-04-26T07:08:56.661Z,101412.41
2019-04-26T07:11:54.688Z,101406.55
2019-04-26T07:15:03.988Z,101408.80
2019-04-26T07:17:47.287Z,101395.38
2019-04-26T07:20:22.894Z,101397.92
2019-04-26T07:23:24.557Z,101401.91
2019-04-26T07:26:06.480Z,101400.16
2019-04-26T07:28:53.120Z,101395.29
2019-04-26T07:31:39.849Z,101382.67
2019-04-26T07:34:31.148Z,101387.06
2019-04-26T07:37:34.317Z,101384.03
2019-04-26T07:40:38.982Z,101384.20
2019-04-26T07:43:40.977Z,101384.20
2019-04-26T07:49:32.996Z,101386.16
2019-04-26T07:52:13.462Z,101379.52
2019-04-26T07:55:20.959Z,101386.95
2019-04-26T07:58:28.824Z,101382.30
2019-04-26T08:01:31.617Z,101372.92
2019-04-26T08:04:07.679Z,101367.50
2019-04-26T08:06:46.581Z,101357.42
2019-04-26T08:09:27.005Z,101360.62
2019-04-26T08:12:00.078Z,101352.09
2019-04-26T08:14:38.796Z,101350.94
2019-04-26T08:17:32.576Z,101356.25
2019-04-26T08:20:21.279Z,101344.47
2019-04-26T08:22:55.457Z,101343.70
2019-04-26T08:25:29.656Z,101334.33
2019-04-26T08:28:03.383Z,101331.70
2019-04-26T08:30:40.538Z,101328.05
2019-04-26T08:33:14.696Z,101324.00
2019-04-26T08:35:53.074Z,101318.86
2019-04-26T08:38:24.381Z,101315.77
2019-04-26T08:40:56.221Z,101305.12
2019-04-26T08:43:36.587Z,101303.82
2019-04-26T08:46:32.397Z,101301.14
2019-04-26T08:49:08.327Z,101289.12
2019-04-26T08:51:42.578Z,101291.88
2019-04-26T08:54:15.088Z,101287.86
2019-04-26T08:56:49.232Z,101283.03
2019-04-26T08:59:23.620Z,101283.63
2019-04-26T09:02:14.578Z,101275.45
2019-04-26T09:05:02.041Z,101273.16
2019-04-26T09:07:37.580Z,101269.20
2019-04-26T09:10:12.279Z,101266.77
2019-04-26T09:12:46.167Z,101267.12
2019-04-26T09:15:21.147Z,101264.74
2019-04-26T09:17:52.516Z,101250.58
2019-04-26T09:20:29.453Z,101249.13
2019-04-26T09:23:14.587Z,101243.27
2019-04-26T09:25:58.757Z,101240.16
2019-04-26T09:28:34.118Z,101248.84
2019-04-26T09:31:07.125Z,101229.87
2019-04-26T09:33:40.216Z,101235.95
2019-04-26T09:36:11.810Z,101237.05
2019-04-26T09:38:43.263Z,101225.07
2019-04-26T09:41:14.835Z,101219.33
2019-04-26T09:43:48.013Z,101226.66
2019-04-26T09:46:37.333Z,101218.61
2019-04-26T09:49:10.423Z,101213.67
2019-04-26T09:51:42.295Z,101213.31
2019-04-26T09:54:15.447Z,101221.59
2019-04-26T09:56:46.310Z,101204.89
2019-04-26T09:59:17.467Z,101215.55
2019-04-26T10:01:49.037Z,101211.45
2019-04-26T10:04:20.629Z,101215.16
2019-04-26T10:06:52.093Z,101216.34
2019-04-26T10:09:25.550Z,101214.85
2019-04-26T10:12:01.817Z,101211.08
2019-04-26T10:14:41.139Z,101213.19
2019-04-26T10:17:17.460Z,101206.52
2019-04-26T10:19:50.921Z,101205.47
2019-04-26T10:22:23.186Z,101199.52
2019-04-26T10:24:57.440Z,101194.94
2019-04-26T10:27:28.928Z,101194.25
2019-04-26T10:30:07.663Z,101199.69
2019-04-26T10:32:33.832Z,101189.98
2019-04-26T10:35:06.597Z,101191.77
2019-04-26T10:37:39.644Z,101185.98
2019-04-26T10:40:11.320Z,101182.83
2019-04-26T10:42:42.564Z,101185.57
2019-04-26T10:45:16.234Z,101179.27
2019-04-26T10:47:47.633Z,101175.55
2019-04-26T10:50:19.555Z,101176.63
2019-04-26T10:53:11.059Z,101179.09
2019-04-26T10:55:46.485Z,101168.02
2019-04-26T10:58:31.915Z,101165.84
2019-04-26T11:01:03.255Z,101169.10
2019-04-26T11:03:35.083Z,101158.20
2019-04-26T11:06:06.340Z,101163.19
2019-04-26T11:08:37.893Z,101153.98
2019-04-26T11:11:10.045Z,101151.56
2019-04-26T11:13:41.578Z,101149.92
2019-04-26T11:16:13.090Z,101148.11
2019-04-26T11:18:44.586Z,101154.36
2019-04-26T11:21:16.278Z,101151.75
2019-04-26T11:23:49.991Z,101146.22
2019-04-26T11:26:21.373Z,101138.55
2019-04-26T11:28:55.645Z,101131.23
2019-04-26T11:31:27.841Z,101135.17
2019-04-26T11:34:05.075Z,101136.00
2019-04-26T11:36:31.653Z,101126.04
2019-04-26T11:39:05.542Z,101123.85
2019-04-26T11:41:39.088Z,101122.92
2019-04-26T11:44:10.807Z,101121.05
2019-04-26T11:46:44.897Z,101125.90
2019-04-26T11:49:16.720Z,101120.34
2019-04-26T11:51:48.563Z,101121.73
2019-04-26T11:54:22.002Z,101112.89
2019-04-26T11:56:54.302Z,101112.11
2019-04-26T11:59:26.990Z,101111.89
2019-04-26T12:01:58.212Z,101112.73
2019-04-26T12:04:34.130Z,101114.66
2019-04-26T12:07:10.324Z,101113.42
2019-04-26T12:09:43.464Z,101111.73
2019-04-26T12:12:14.731Z,101109.50
2019-04-26T12:14:46.228Z,101101.69
2019-04-26T12:17:17.662Z,101097.92
2019-04-26T12:19:52.260Z,101098.37
2019-04-26T12:22:23.579Z,101100.48
2019-04-26T12:24:55.056Z,101098.78
2019-04-26T12:27:30.373Z,101089.45
2019-04-26T12:29:58.821Z,101089.75
2019-04-26T12:32:30.099Z,101087.75
2019-04-26T12:35:01.798Z,101092.39
2019-04-26T12:37:33.384Z,101083.20
2019-04-26T12:40:07.219Z,101075.09
2019-04-26T12:42:39.298Z,101071.72
2019-04-26T12:45:24.995Z,101069.77
2019-04-26T12:48:01.022Z,101071.02
2019-04-26T12:50:36.442Z,101067.38
2019-04-26T12:53:04.972Z,101065.61
2019-04-26T12:55:36.677Z,101061.91
2019-04-26T12:58:11.044Z,101056.89
2019-04-26T13:00:53.349Z,101058.48
2019-04-26T13:03:20.212Z,101053.09
2019-04-26T13:05:49.787Z,101054.30
2019-04-26T13:08:19.766Z,101061.70
2019-04-26T13:11:18.526Z,101067.02
2019-04-26T13:13:54.533Z,101068.01
2019-04-26T13:16:27.882Z,101051.20
2019-04-26T13:18:59.490Z,101058.38
2019-04-26T13:21:33.073Z,101056.22
2019-04-26T13:24:06.247Z,101047.20
2019-04-26T13:26:38.010Z,101049.59
2019-04-26T13:29:09.588Z,101042.81
2019-04-26T13:31:41.343Z,101044.14
2019-04-26T13:34:13.218Z,101040.60
2019-04-26T13:36:45.426Z,101049.20
2019-04-26T13:39:17.945Z,101053.36
2019-04-26T13:42:02.193Z,101054.05
2019-04-26T13:44:41.839Z,101053.56
2019-04-26T13:47:21.019Z,101052.00
2019-04-26T13:49:54.308Z,101047.12
2019-04-26T13:52:25.087Z,101041.03
2019-04-26T13:54:56.519Z,101033.28
2019-04-26T13:57:28.383Z,101034.98
2019-04-26T14:00:02.558Z,101037.52
2019-04-26T14:02:34.336Z,101033.59
2019-04-26T14:05:06.264Z,101033.80
2019-04-26T14:07:37.861Z,101035.79
2019-04-26T14:10:09.391Z,101033.66
2019-04-26T14:12:40.986Z,101033.66
2019-04-26T14:15:12.521Z,101033.53
2019-04-26T14:17:44.210Z,101032.14
2019-04-26T14:20:19.312Z,101033.39
2019-04-26T14:23:06.221Z,101038.31
2019-04-26T14:25:57.481Z,101042.92
2019-04-26T14:28:29.047Z,101050.23
2019-04-26T14:31:00.517Z,101047.23
2019-04-26T14:33:32.300Z,101058.39
2019-04-26T14:36:17.095Z,101057.01
2019-04-26T14:38:40.058Z,101051.94
2019-04-26T14:41:13.558Z,101047.48
2019-04-26T14:43:43.979Z,101049.02
2019-04-26T14:46:16.373Z,101055.68
2019-04-26T14:49:01.303Z,101052.16
2019-04-26T14:51:25.515Z,101056.00
2019-04-26T14:53:57.102Z,101055.72
2019-04-26T14:56:29.299Z,101050.98
2019-04-26T14:59:01.727Z,101053.55
2019-04-26T15:01:52.301Z,101049.83
2019-04-26T15:04:34.997Z,101051.17
2019-04-26T15:07:07.040Z,101048.13
2019-04-26T15:09:38.436Z,101053.11
2019-04-26T15:12:12.499Z,101053.78
2019-04-26T15:14:42.638Z,101053.41
2019-04-26T15:17:16.334Z,101055.69
2019-04-26T15:19:47.331Z,101050.47
2019-04-26T15:22:18.522Z,101051.22
2019-04-26T15:24:50.127Z,101056.03
2019-04-26T15:27:21.619Z,101053.18
2019-04-26T15:29:53.330Z,101050.07
2019-04-26T15:32:27.986Z,101055.31
2019-04-26T15:34:58.594Z,101054.36
2019-04-26T15:37:32.076Z,101051.42
2019-04-26T15:40:22.575Z,101047.15
2019-04-26T15:43:01.347Z,101052.91
2019-04-26T15:45:32.593Z,101049.52
2019-04-26T15:48:08.383Z,101049.02
2019-04-26T15:50:50.154Z,101051.38
2019-04-26T15:53:14.860Z,101043.83
2019-04-26T15:55:47.538Z,101047.25
2019-04-26T15:58:18.992Z,101046.38
2019-04-26T16:00:50.634Z,101052.06
2019-04-26T16:03:22.742Z,101050.05
2019-04-26T16:05:54.866Z,101051.02
2019-04-26T16:08:26.023Z,101052.28
2019-04-26T16:10:57.576Z,101045.29
2019-04-26T16:13:29.273Z,101045.91
2019-04-26T16:16:02.026Z,101047.02
2019-04-26T16:18:34.063Z,101046.29
2019-04-26T16:21:05.717Z,101049.05
2019-04-26T16:23:41.226Z,101047.13
2019-04-26T16:26:14.368Z,101041.08
2019-04-26T16:28:45.803Z,101039.25
2019-04-26T16:31:22.076Z,101032.98
2019-04-26T16:33:58.214Z,101034.91
2019-04-26T16:36:29.784Z,101034.68
2019-04-26T16:39:05.751Z,101033.42
2019-04-26T16:41:38.695Z,101042.36
2019-04-26T16:44:13.019Z,101039.84
2019-04-26T16:46:44.064Z,101037.41
2019-04-26T16:49:15.252Z,101037.45
2019-04-26T16:51:54.478Z,101040.09
2019-04-26T16:54:21.786Z,101046.84
2019-04-26T16:56:52.687Z,101051.17
2019-04-26T16:59:26.757Z,101050.71
2019-04-26T17:02:01.494Z,101049.63
2019-04-26T17:04:32.299Z,101049.60
2019-04-26T17:07:05.077Z,101059.25
2019-04-26T17:09:55.799Z,101057.21
2019-04-26T17:12:15.008Z,101060.04
2019-04-26T17:14:47.773Z,101069.31
2019-04-26T17:17:17.374Z,101068.23
2019-04-26T17:19:48.933Z,101071.89
2019-04-26T17:22:41.831Z,101073.01
2019-04-26T17:25:02.785Z,101081.39
2019-04-26T17:27:33.656Z,101086.90
2019-04-26T17:30:08.722Z,101085.80
2019-04-26T17:32:40.133Z,101091.59
2019-04-26T17:35:11.550Z,101089.94
2019-04-26T17:37:43.406Z,101095.13
2019-04-26T17:40:14.964Z,101097.31
2019-04-26T17:42:46.744Z,101099.73
2019-04-26T17:45:18.281Z,101110.16
2019-04-26T17:47:50.691Z,101110.03
2019-04-26T17:50:22.986Z,101112.34
2019-04-26T17:52:54.469Z,101117.48
2019-04-26T17:55:26.048Z,101115.96
2019-04-26T17:58:11.595Z,101124.24
2019-04-26T18:00:45.507Z,101122.48
2019-04-26T18:03:07.606Z,101123.52
2019-04-26T18:05:50.037Z,101126.80
2019-04-26T18:08:31.357Z,101123.66
2019-04-26T18:10:42.946Z,101125.03
2019-04-26T18:13:16.273Z,101128.10
2019-04-26T18:15:48.631Z,101125.50
2019-04-26T18:18:28.221Z,101125.27
2019-04-26T18:21:02.976Z,101120.72
2019-04-26T18:23:34.620Z,101121.76
2019-04-26T18:26:06.147Z,101118.15
2019-04-26T18:28:37.618Z,101124.11
2019-04-26T18:31:10.845Z,101117.81
2019-04-26T18:33:42.641Z,101119.70
2019-04-26T18:36:14.050Z,101125.00
2019-04-26T18:38:48.582Z,101127.75
2019-04-26T18:41:18.670Z,101128.00
2019-04-26T18:43:55.594Z,101127.45
2019-04-26T18:46:27.568Z,101127.51
2019-04-26T18:48:59.001Z,101127.91
2019-04-26T18:51:30.543Z,101121.05
2019-04-26T18:54:17.843Z,101118.83
2019-04-26T18:56:55.248Z,101118.83
2019-04-26T18:59:27.949Z,101127.98
2019-04-26T19:01:59.632Z,101119.78
2019-04-26T19:04:31.168Z,101124.13
2019-04-26T19:07:03.698Z,101120.66
2019-04-26T19:09:56.654Z,101123.94
2019-04-26T19:12:11.786Z,101119.39
2019-04-26T19:14:49.825Z,101122.14
2019-04-26T19:17:36.089Z,101120.84
2019-04-26T19:20:25.910Z,101132.37
2019-04-26T19:23:05.260Z,101134.41
2019-04-26T19:25:40.877Z,101131.75
2019-04-26T19:28:12.148Z,101127.37
2019-04-26T19:30:49.320Z,101130.59
2019-04-26T19:33:18.582Z,101128.23
2019-04-26T19:35:50.486Z,101123.67
2019-04-26T19:38:22.078Z,101113.33
2019-04-26T19:40:53.563Z,101103.92
2019-04-26T19:43:31.007Z,101111.99
2019-04-26T19:46:01.441Z,101111.42
2019-04-26T19:48:35.831Z,101108.51
2019-04-26T19:51:08.936Z,101104.59
2019-04-26T19:53:54.166Z,101097.52
2019-04-26T19:56:35.911Z,101101.03
2019-04-26T19:59:07.494Z,101106.16
2019-04-26T20:01:39.070Z,101097.57
2019-04-26T20:04:14.983Z,101107.86
2019-04-26T20:06:48.397Z,101106.65
2019-04-26T20:09:22.874Z,101099.58
2019-04-26T20:11:57.933Z,101099.86
2019-04-26T20:14:39.928Z,101099.75
2019-04-26T20:17:01.751Z,101100.40
2019-04-26T20:19:37.265Z,101099.45
2019-04-26T20:22:06.779Z,101097.80
2019-04-26T20:24:38.249Z,101100.40
2019-04-26T20:27:14.951Z,101101.77
2019-04-26T20:29:47.306Z,101105.33
2019-04-26T20:32:21.143Z,101099.58
2019-04-26T20:34:52.638Z,101099.78
2019-04-26T20:37:25.796Z,101103.07
2019-04-26T20:40:16.239Z,101086.68
2019-04-26T20:42:31.621Z,101093.66
2019-04-26T20:45:04.516Z,101091.59
2019-04-26T20:47:36.858Z,101097.10
2019-04-26T20:50:08.951Z,101091.11
2019-04-26T20:52:41.442Z,101093.73
2019-04-26T20:55:13.769Z,101093.02
2019-04-26T20:57:45.471Z,101091.70
2019-04-26T21:00:17.039Z,101088.55
2019-04-26T21:02:48.540Z,101091.33
2019-04-26T21:05:21.386Z,101078.17
2019-04-26T21:07:52.869Z,101076.50
2019-04-26T21:10:25.742Z,101078.30
2019-04-26T21:12:57.428Z,101080.14
2019-04-26T21:15:29.018Z,101078.02
2019-04-26T21:18:01.333Z,101072.03
2019-04-26T21:20:36.420Z,101070.89
2019-04-26T21:23:06.904Z,101070.44
2019-04-26T21:25:48.936Z,101071.41
2019-04-26T21:28:32.924Z,101073.06
2019-04-26T21:31:12.127Z,101074.00
2019-04-26T21:34:03.751Z,101081.53
2019-04-26T21:36:41.056Z,101079.11
2019-04-26T21:39:17.812Z,101079.55
2019-04-26T21:41:51.003Z,101080.58
2019-04-26T21:44:22.577Z,101073.77
2019-04-26T21:46:58.628Z,101079.66
2019-04-26T21:49:27.221Z,101076.46
2019-04-26T21:51:58.608Z,101082.14
2019-04-26T21:54:29.884Z,101081.57
2019-04-26T21:57:01.230Z,101085.05
2019-04-26T21:59:35.196Z,101080.81
2019-04-26T22:02:06.813Z,101082.97
2019-04-26T22:04:38.370Z,101078.66
2019-04-26T22:07:09.908Z,101092.01
2019-04-26T22:09:52.892Z,101084.75
2019-04-26T22:12:27.236Z,101077.98
2019-04-26T22:15:00.950Z,101085.30
2019-04-26T22:17:40.423Z,101075.22
2019-04-26T22:20:27.868Z,101069.91
2019-04-26T22:23:16.426Z,101070.02
2019-04-26T22:25:48.719Z,101068.90
2019-04-26T22:28:20.222Z,101066.95
2019-04-26T22:30:51.720Z,101065.58
2019-04-26T22:33:27.405Z,101073.58
2019-04-26T22:35:58.702Z,101060.19
2019-04-26T22:38:30.233Z,101063.53
2019-04-26T22:41:03.042Z,101072.44
2019-04-26T22:43:36.204Z,101066.58
2019-04-26T22:46:18.717Z,101068.77
2019-04-26T22:48:54.895Z,101068.87
2019-04-26T22:51:24.032Z,101067.15
2019-04-26T22:53:57.662Z,101065.10
2019-04-26T22:56:32.529Z,101063.34
2019-04-26T22:59:15.212Z,101065.10
2019-04-26T23:01:48.882Z,101067.11
2019-04-26T23:04:23.665Z,101062.12
2019-04-26T23:06:56.469Z,101061.45
2019-04-26T23:09:27.923Z,101054.73
2019-04-26T23:12:01.476Z,101056.33
2019-04-26T23:14:36.457Z,101052.41
2019-04-26T23:17:15.277Z,101064.05
2019-04-26T23:19:57.559Z,101054.80
2019-04-26T23:22:31.099Z,101052.59
2019-04-26T23:25:03.529Z,101048.30
2019-04-26T23:27:35.270Z,101055.18
2019-04-26T23:30:07.000Z,101047.09
2019-04-26T23:32:38.533Z,101045.02
2019-04-26T23:35:09.983Z,101047.47
2019-04-26T23:37:41.534Z,101040.09
2019-04-26T23:40:13.412Z,101045.41
2019-04-26T23:42:47.604Z,101042.31
2019-04-26T23:45:48.356Z,101037.34
2019-04-26T23:48:19.215Z,101038.87
2019-04-26T23:50:51.019Z,101035.98
2019-04-26T23:53:24.015Z,101032.02
2019-04-26T23:55:55.692Z,101026.95
2019-04-26T23:58:27.137Z,101022.16
